sensor_id;sensor_type;location;lat;lon;timestamp;P1;durP1;ratioP1;P2;durP2;ratioP2
19887;SDS011;10106;51.332;12.336;2022-08-14T00:01:58;13.07;;;9.93;;
19887;SDS011;10106;51.332;12.336;2022-08-14T00:04:24;16.60;;;10.77;;
19887;SDS011;10106;51.332;12.336;2022-08-14T00:06:50;16.17;;;10.60;;
19887;SDS011;10106;51.332;12.336;2022-08-14T00:09:16;16.00;;;10.90;;
19887;SDS011;10106;51.332;12.336;2022-08-14T00:11:41;14.87;;;10.07;;
19887;SDS011;10106;51.332;12.336;2022-08-14T00:14:07;16.17;;;10.00;;
19887;SDS011;10106;51.332;12.336;2022-08-14T00:16:33;14.03;;;9.10;;
19887;SDS011;10106;51.332;12.336;2022-08-14T00:18:59;15.47;;;10.20;;
19887;SDS011;10106;51.332;12.336;2022-08-14T00:21:25;16.03;;;9.67;;
19887;SDS011;10106;51.332;12.336;2022-08-14T00:23:51;14.57;;;10.20;;
19887;SDS011;10106;51.332;12.336;2022-08-14T00:26:18;15.77;;;10.73;;
19887;SDS011;10106;51.332;12.336;2022-08-14T00:28:44;15.37;;;10.70;;
19887;SDS011;10106;51.332;12.336;2022-08-14T00:31:09;13.63;;;10.10;;
19887;SDS011;10106;51.332;12.336;2022-08-14T00:33:35;17.53;;;9.67;;
19887;SDS011;10106;51.332;12.336;2022-08-14T00:36:02;14.93;;;10.17;;
19887;SDS011;10106;51.332;12.336;2022-08-14T00:38:28;17.43;;;10.17;;
19887;SDS011;10106;51.332;12.336;2022-08-14T00:40:53;17.03;;;10.30;;
19887;SDS011;10106;51.332;12.336;2022-08-14T00:43:19;14.40;;;10.30;;
19887;SDS011;10106;51.332;12.336;2022-08-14T00:45:45;17.30;;;10.67;;
19887;SDS011;10106;51.332;12.336;2022-08-14T00:48:11;15.67;;;10.63;;
19887;SDS011;10106;51.332;12.336;2022-08-14T00:50:37;17.73;;;11.63;;
19887;SDS011;10106;51.332;12.336;2022-08-14T00:53:03;16.50;;;10.30;;
19887;SDS011;10106;51.332;12.336;2022-08-14T00:55:29;13.83;;;8.90;;
19887;SDS011;10106;51.332;12.336;2022-08-14T00:57:56;15.73;;;10.73;;
19887;SDS011;10106;51.332;12.336;2022-08-14T01:00:55;18.43;;;10.33;;
19887;SDS011;10106;51.332;12.336;2022-08-14T01:03:26;19.87;;;11.07;;
19887;SDS011;10106;51.332;12.336;2022-08-14T01:05:56;17.67;;;10.27;;
19887;SDS011;10106;51.332;12.336;2022-08-14T01:08:24;18.25;;;12.57;;
19887;SDS011;10106;51.332;12.336;2022-08-14T01:10:51;16.60;;;10.90;;
19887;SDS011;10106;51.332;12.336;2022-08-14T01:13:40;22.20;;;11.20;;
19887;SDS011;10106;51.332;12.336;2022-08-14T01:16:06;14.03;;;10.30;;
19887;SDS011;10106;51.332;12.336;2022-08-14T01:18:34;17.03;;;10.67;;
19887;SDS011;10106;51.332;12.336;2022-08-14T01:21:39;16.70;;;9.53;;
19887;SDS011;10106;51.332;12.336;2022-08-14T01:24:06;15.50;;;11.17;;
19887;SDS011;10106;51.332;12.336;2022-08-14T01:26:33;14.20;;;9.40;;
19887;SDS011;10106;51.332;12.336;2022-08-14T01:28:59;17.73;;;11.23;;
19887;SDS011;10106;51.332;12.336;2022-08-14T01:31:27;20.33;;;9.20;;
19887;SDS011;10106;51.332;12.336;2022-08-14T01:33:55;16.87;;;10.83;;
19887;SDS011;10106;51.332;12.336;2022-08-14T01:36:27;18.33;;;10.90;;
19887;SDS011;10106;51.332;12.336;2022-08-14T01:38:58;19.77;;;12.63;;
19887;SDS011;10106;51.332;12.336;2022-08-14T01:41:25;14.37;;;10.50;;
19887;SDS011;10106;51.332;12.336;2022-08-14T01:43:53;17.07;;;11.17;;
19887;SDS011;10106;51.332;12.336;2022-08-14T01:46:26;17.50;;;11.30;;
19887;SDS011;10106;51.332;12.336;2022-08-14T01:48:54;16.57;;;10.80;;
19887;SDS011;10106;51.332;12.336;2022-08-14T01:51:21;15.60;;;10.83;;
19887;SDS011;10106;51.332;12.336;2022-08-14T01:53:52;17.30;;;11.27;;
19887;SDS011;10106;51.332;12.336;2022-08-14T01:56:20;18.77;;;12.10;;
19887;SDS011;10106;51.332;12.336;2022-08-14T01:59:00;17.17;;;11.43;;
19887;SDS011;10106;51.332;12.336;2022-08-14T02:01:25;18.90;;;11.07;;
19887;SDS011;10106;51.332;12.336;2022-08-14T02:03:51;16.77;;;10.13;;
19887;SDS011;10106;51.332;12.336;2022-08-14T02:06:17;17.33;;;11.57;;
19887;SDS011;10106;51.332;12.336;2022-08-14T02:08:43;15.90;;;10.63;;
19887;SDS011;10106;51.332;12.336;2022-08-14T02:11:10;16.27;;;10.67;;
19887;SDS011;10106;51.332;12.336;2022-08-14T02:13:52;17.03;;;9.57;;
19887;SDS011;10106;51.332;12.336;2022-08-14T02:16:23;15.97;;;10.17;;
19887;SDS011;10106;51.332;12.336;2022-08-14T02:18:54;17.40;;;10.07;;
19887;SDS011;10106;51.332;12.336;2022-08-14T02:21:21;17.27;;;10.53;;
19887;SDS011;10106;51.332;12.336;2022-08-14T02:23:48;13.70;;;10.00;;
19887;SDS011;10106;51.332;12.336;2022-08-14T02:26:18;16.73;;;10.57;;
19887;SDS011;10106;51.332;12.336;2022-08-14T02:28:48;17.87;;;11.00;;
19887;SDS011;10106;51.332;12.336;2022-08-14T02:31:15;15.10;;;11.13;;
19887;SDS011;10106;51.332;12.336;2022-08-14T02:33:42;15.67;;;10.40;;
19887;SDS011;10106;51.332;12.336;2022-08-14T02:36:08;21.47;;;11.90;;
19887;SDS011;10106;51.332;12.336;2022-08-14T02:38:35;18.27;;;11.30;;
19887;SDS011;10106;51.332;12.336;2022-08-14T02:41:02;16.73;;;10.93;;
19887;SDS011;10106;51.332;12.336;2022-08-14T02:43:29;19.00;;;12.03;;
19887;SDS011;10106;51.332;12.336;2022-08-14T02:45:56;15.00;;;10.47;;
19887;SDS011;10106;51.332;12.336;2022-08-14T02:48:22;18.38;;;12.63;;
19887;SDS011;10106;51.332;12.336;2022-08-14T02:50:56;16.07;;;10.93;;
19887;SDS011;10106;51.332;12.336;2022-08-14T02:53:23;20.40;;;12.17;;
19887;SDS011;10106;51.332;12.336;2022-08-14T02:55:49;17.73;;;11.70;;
19887;SDS011;10106;51.332;12.336;2022-08-14T02:58:15;16.90;;;11.33;;
19887;SDS011;10106;51.332;12.336;2022-08-14T03:00:42;17.47;;;11.50;;
19887;SDS011;10106;51.332;12.336;2022-08-14T03:03:07;18.80;;;11.13;;
19887;SDS011;10106;51.332;12.336;2022-08-14T03:05:33;16.47;;;10.50;;
19887;SDS011;10106;51.332;12.336;2022-08-14T03:08:03;17.33;;;11.40;;
19887;SDS011;10106;51.332;12.336;2022-08-14T03:10:34;15.27;;;9.70;;
19887;SDS011;10106;51.332;12.336;2022-08-14T03:13:01;16.30;;;10.60;;
19887;SDS011;10106;51.332;12.336;2022-08-14T03:15:30;19.00;;;11.33;;
19887;SDS011;10106;51.332;12.336;2022-08-14T03:17:58;17.47;;;11.30;;
19887;SDS011;10106;51.332;12.336;2022-08-14T03:20:27;20.03;;;12.30;;
19887;SDS011;10106;51.332;12.336;2022-08-14T03:22:54;15.33;;;10.30;;
19887;SDS011;10106;51.332;12.336;2022-08-14T03:25:23;16.90;;;10.73;;
19887;SDS011;10106;51.332;12.336;2022-08-14T03:27:49;24.10;;;11.53;;
19887;SDS011;10106;51.332;12.336;2022-08-14T03:30:15;17.13;;;10.17;;
19887;SDS011;10106;51.332;12.336;2022-08-14T03:32:40;15.07;;;9.83;;
19887;SDS011;10106;51.332;12.336;2022-08-14T03:35:07;19.37;;;11.13;;
19887;SDS011;10106;51.332;12.336;2022-08-14T03:37:35;19.90;;;11.07;;
19887;SDS011;10106;51.332;12.336;2022-08-14T03:40:01;18.47;;;10.70;;
19887;SDS011;10106;51.332;12.336;2022-08-14T03:42:27;15.63;;;11.03;;
19887;SDS011;10106;51.332;12.336;2022-08-14T03:44:52;15.17;;;10.00;;
19887;SDS011;10106;51.332;12.336;2022-08-14T03:47:18;15.20;;;10.20;;
19887;SDS011;10106;51.332;12.336;2022-08-14T03:49:43;19.13;;;12.07;;
19887;SDS011;10106;51.332;12.336;2022-08-14T03:52:10;15.00;;;10.07;;
19887;SDS011;10106;51.332;12.336;2022-08-14T03:54:36;19.20;;;11.47;;
19887;SDS011;10106;51.332;12.336;2022-08-14T03:57:02;16.43;;;11.00;;
19887;SDS011;10106;51.332;12.336;2022-08-14T03:59:28;15.70;;;9.40;;
19887;SDS011;10106;51.332;12.336;2022-08-14T04:01:54;17.47;;;10.47;;
19887;SDS011;10106;51.332;12.336;2022-08-14T04:04:20;15.07;;;9.67;;
19887;SDS011;10106;51.332;12.336;2022-08-14T04:06:46;15.93;;;10.13;;
19887;SDS011;10106;51.332;12.336;2022-08-14T04:09:12;15.07;;;9.43;;
19887;SDS011;10106;51.332;12.336;2022-08-14T04:11:38;16.27;;;9.80;;
19887;SDS011;10106;51.332;12.336;2022-08-14T04:14:04;14.70;;;9.60;;
19887;SDS011;10106;51.332;12.336;2022-08-14T04:16:30;14.03;;;9.27;;
19887;SDS011;10106;51.332;12.336;2022-08-14T04:18:57;18.30;;;10.63;;
19887;SDS011;10106;51.332;12.336;2022-08-14T04:21:24;15.23;;;10.00;;
19887;SDS011;10106;51.332;12.336;2022-08-14T04:23:53;20.93;;;10.27;;
19887;SDS011;10106;51.332;12.336;2022-08-14T04:26:22;18.17;;;9.60;;
19887;SDS011;10106;51.332;12.336;2022-08-14T04:28:49;16.40;;;10.07;;
19887;SDS011;10106;51.332;12.336;2022-08-14T04:31:16;15.10;;;10.77;;
19887;SDS011;10106;51.332;12.336;2022-08-14T04:33:43;16.37;;;9.70;;
19887;SDS011;10106;51.332;12.336;2022-08-14T04:36:08;16.80;;;9.80;;
19887;SDS011;10106;51.332;12.336;2022-08-14T04:38:34;16.10;;;10.57;;
19887;SDS011;10106;51.332;12.336;2022-08-14T04:41:18;14.57;;;9.43;;
19887;SDS011;10106;51.332;12.336;2022-08-14T04:44:03;13.33;;;9.10;;
19887;SDS011;10106;51.332;12.336;2022-08-14T04:46:29;16.50;;;10.37;;
19887;SDS011;10106;51.332;12.336;2022-08-14T04:48:57;15.47;;;10.13;;
19887;SDS011;10106;51.332;12.336;2022-08-14T04:51:23;16.50;;;10.33;;
19887;SDS011;10106;51.332;12.336;2022-08-14T04:53:50;15.53;;;9.63;;
19887;SDS011;10106;51.332;12.336;2022-08-14T04:56:17;17.80;;;10.40;;
19887;SDS011;10106;51.332;12.336;2022-08-14T04:58:46;15.60;;;9.20;;
19887;SDS011;10106;51.332;12.336;2022-08-14T05:06:24;14.03;;;9.60;;
19887;SDS011;10106;51.332;12.336;2022-08-14T05:08:50;16.70;;;10.47;;
19887;SDS011;10106;51.332;12.336;2022-08-14T05:11:15;13.33;;;9.33;;
19887;SDS011;10106;51.332;12.336;2022-08-14T05:13:43;12.73;;;9.10;;
19887;SDS011;10106;51.332;12.336;2022-08-14T05:16:08;15.30;;;9.80;;
19887;SDS011;10106;51.332;12.336;2022-08-14T05:18:37;13.67;;;10.10;;
19887;SDS011;10106;51.332;12.336;2022-08-14T05:21:04;12.80;;;9.73;;
19887;SDS011;10106;51.332;12.336;2022-08-14T05:23:33;12.83;;;8.93;;
19887;SDS011;10106;51.332;12.336;2022-08-14T05:26:00;15.47;;;10.27;;
19887;SDS011;10106;51.332;12.336;2022-08-14T05:28:38;12.47;;;9.37;;
19887;SDS011;10106;51.332;12.336;2022-08-14T05:31:06;13.63;;;9.53;;
19887;SDS011;10106;51.332;12.336;2022-08-14T05:33:32;14.80;;;9.60;;
19887;SDS011;10106;51.332;12.336;2022-08-14T05:36:01;17.20;;;10.27;;
19887;SDS011;10106;51.332;12.336;2022-08-14T05:38:39;14.17;;;9.73;;
19887;SDS011;10106;51.332;12.336;2022-08-14T05:41:09;14.30;;;9.70;;
19887;SDS011;10106;51.332;12.336;2022-08-14T05:43:39;15.17;;;10.13;;
19887;SDS011;10106;51.332;12.336;2022-08-14T05:46:06;12.10;;;9.27;;
19887;SDS011;10106;51.332;12.336;2022-08-14T05:48:36;16.30;;;9.17;;
19887;SDS011;10106;51.332;12.336;2022-08-14T05:51:02;17.33;;;9.13;;
19887;SDS011;10106;51.332;12.336;2022-08-14T05:53:28;14.63;;;9.80;;
19887;SDS011;10106;51.332;12.336;2022-08-14T05:55:53;12.57;;;8.80;;
19887;SDS011;10106;51.332;12.336;2022-08-14T05:58:20;13.27;;;8.70;;
19887;SDS011;10106;51.332;12.336;2022-08-14T06:00:47;12.80;;;9.53;;
19887;SDS011;10106;51.332;12.336;2022-08-14T06:03:18;12.23;;;9.30;;
19887;SDS011;10106;51.332;12.336;2022-08-14T06:05:46;16.73;;;11.03;;
19887;SDS011;10106;51.332;12.336;2022-08-14T06:08:15;15.07;;;10.40;;
19887;SDS011;10106;51.332;12.336;2022-08-14T06:10:46;15.10;;;9.90;;
19887;SDS011;10106;51.332;12.336;2022-08-14T06:13:13;12.30;;;8.50;;
19887;SDS011;10106;51.332;12.336;2022-08-14T06:15:39;14.60;;;10.20;;
19887;SDS011;10106;51.332;12.336;2022-08-14T06:18:05;16.83;;;9.43;;
19887;SDS011;10106;51.332;12.336;2022-08-14T06:20:31;14.90;;;9.37;;
19887;SDS011;10106;51.332;12.336;2022-08-14T06:22:58;11.50;;;8.73;;
19887;SDS011;10106;51.332;12.336;2022-08-14T06:25:23;10.20;;;8.53;;
19887;SDS011;10106;51.332;12.336;2022-08-14T06:27:49;9.98;;;8.10;;
19887;SDS011;10106;51.332;12.336;2022-08-14T06:30:16;13.27;;;9.40;;
19887;SDS011;10106;51.332;12.336;2022-08-14T06:32:44;9.63;;;7.93;;
19887;SDS011;10106;51.332;12.336;2022-08-14T06:35:11;9.65;;;7.53;;
19887;SDS011;10106;51.332;12.336;2022-08-14T06:37:43;10.63;;;8.20;;
19887;SDS011;10106;51.332;12.336;2022-08-14T06:40:10;9.15;;;8.13;;
19887;SDS011;10106;51.332;12.336;2022-08-14T06:42:41;8.65;;;7.75;;
19887;SDS011;10106;51.332;12.336;2022-08-14T06:45:07;11.77;;;8.87;;
19887;SDS011;10106;51.332;12.336;2022-08-14T06:47:37;9.00;;;8.00;;
19887;SDS011;10106;51.332;12.336;2022-08-14T06:50:05;8.90;;;8.00;;
19887;SDS011;10106;51.332;12.336;2022-08-14T06:52:33;8.67;;;7.77;;
19887;SDS011;10106;51.332;12.336;2022-08-14T06:54:59;8.27;;;7.47;;
19887;SDS011;10106;51.332;12.336;2022-08-14T06:57:25;9.20;;;7.40;;
19887;SDS011;10106;51.332;12.336;2022-08-14T06:59:58;7.88;;;7.07;;
19887;SDS011;10106;51.332;12.336;2022-08-14T07:02:24;9.90;;;7.70;;
19887;SDS011;10106;51.332;12.336;2022-08-14T07:05:08;8.20;;;7.20;;
19887;SDS011;10106;51.332;12.336;2022-08-14T07:07:55;8.43;;;7.60;;
19887;SDS011;10106;51.332;12.336;2022-08-14T07:10:21;8.13;;;7.00;;
19887;SDS011;10106;51.332;12.336;2022-08-14T07:12:47;8.23;;;7.43;;
19887;SDS011;10106;51.332;12.336;2022-08-14T07:15:19;8.20;;;7.30;;
19887;SDS011;10106;51.332;12.336;2022-08-14T07:17:45;9.38;;;7.43;;
19887;SDS011;10106;51.332;12.336;2022-08-14T07:20:16;8.00;;;7.15;;
19887;SDS011;10106;51.332;12.336;2022-08-14T07:22:45;8.30;;;7.50;;
19887;SDS011;10106;51.332;12.336;2022-08-14T07:25:12;8.15;;;7.35;;
19887;SDS011;10106;51.332;12.336;2022-08-14T07:27:38;8.48;;;7.50;;
19887;SDS011;10106;51.332;12.336;2022-08-14T07:30:07;8.20;;;7.30;;
19887;SDS011;10106;51.332;12.336;2022-08-14T07:32:33;7.47;;;6.77;;
19887;SDS011;10106;51.332;12.336;2022-08-14T07:34:59;8.70;;;7.40;;
19887;SDS011;10106;51.332;12.336;2022-08-14T07:37:25;8.65;;;7.40;;
19887;SDS011;10106;51.332;12.336;2022-08-14T07:39:51;9.60;;;7.60;;
19887;SDS011;10106;51.332;12.336;2022-08-14T07:42:16;8.30;;;7.30;;
19887;SDS011;10106;51.332;12.336;2022-08-14T07:44:42;8.40;;;7.50;;
19887;SDS011;10106;51.332;12.336;2022-08-14T07:47:08;7.80;;;7.00;;
19887;SDS011;10106;51.332;12.336;2022-08-14T07:49:33;8.93;;;7.37;;
19887;SDS011;10106;51.332;12.336;2022-08-14T07:52:00;8.40;;;7.60;;
19887;SDS011;10106;51.332;12.336;2022-08-14T07:54:26;8.45;;;7.15;;
19887;SDS011;10106;51.332;12.336;2022-08-14T07:56:52;7.20;;;6.50;;
19887;SDS011;10106;51.332;12.336;2022-08-14T07:59:17;8.00;;;6.80;;
19887;SDS011;10106;51.332;12.336;2022-08-14T08:01:46;7.13;;;6.43;;
19887;SDS011;10106;51.332;12.336;2022-08-14T08:04:12;8.15;;;7.00;;
19887;SDS011;10106;51.332;12.336;2022-08-14T08:06:39;7.97;;;7.20;;
19887;SDS011;10106;51.332;12.336;2022-08-14T08:09:04;8.10;;;7.30;;
19887;SDS011;10106;51.332;12.336;2022-08-14T08:11:34;7.68;;;6.90;;
19887;SDS011;10106;51.332;12.336;2022-08-14T08:14:02;8.37;;;6.97;;
19887;SDS011;10106;51.332;12.336;2022-08-14T08:16:31;7.20;;;6.50;;
19887;SDS011;10106;51.332;12.336;2022-08-14T08:18:58;7.53;;;6.72;;
19887;SDS011;10106;51.332;12.336;2022-08-14T08:21:23;7.57;;;6.78;;
19887;SDS011;10106;51.332;12.336;2022-08-14T08:23:50;8.68;;;6.88;;
19887;SDS011;10106;51.332;12.336;2022-08-14T08:26:16;6.90;;;6.20;;
19887;SDS011;10106;51.332;12.336;2022-08-14T08:28:53;7.05;;;6.35;;
19887;SDS011;10106;51.332;12.336;2022-08-14T08:31:20;7.57;;;6.82;;
19887;SDS011;10106;51.332;12.336;2022-08-14T08:33:49;7.10;;;6.40;;
19887;SDS011;10106;51.332;12.336;2022-08-14T08:36:16;8.00;;;7.13;;
19887;SDS011;10106;51.332;12.336;2022-08-14T08:38:42;7.78;;;7.07;;
19887;SDS011;10106;51.332;12.336;2022-08-14T08:41:09;7.45;;;6.70;;
19887;SDS011;10106;51.332;12.336;2022-08-14T08:43:35;9.32;;;7.25;;
19887;SDS011;10106;51.332;12.336;2022-08-14T08:46:08;8.30;;;7.50;;
19887;SDS011;10106;51.332;12.336;2022-08-14T08:51:21;7.80;;;7.00;;
19887;SDS011;10106;51.332;12.336;2022-08-14T08:53:58;7.37;;;6.63;;
19887;SDS011;10106;51.332;12.336;2022-08-14T08:56:47;8.15;;;7.35;;
19887;SDS011;10106;51.332;12.336;2022-08-14T08:59:22;7.40;;;6.70;;
19887;SDS011;10106;51.332;12.336;2022-08-14T09:01:59;7.70;;;6.90;;
19887;SDS011;10106;51.332;12.336;2022-08-14T09:04:26;8.82;;;7.00;;
19887;SDS011;10106;51.332;12.336;2022-08-14T09:06:54;10.32;;;7.20;;
19887;SDS011;10106;51.332;12.336;2022-08-14T09:09:21;8.05;;;6.95;;
19887;SDS011;10106;51.332;12.336;2022-08-14T09:11:48;7.63;;;6.93;;
19887;SDS011;10106;51.332;12.336;2022-08-14T09:14:15;8.10;;;6.93;;
19887;SDS011;10106;51.332;12.336;2022-08-14T09:16:41;7.10;;;6.40;;
19887;SDS011;10106;51.332;12.336;2022-08-14T09:19:10;7.30;;;6.60;;
19887;SDS011;10106;51.332;12.336;2022-08-14T09:21:37;7.40;;;6.30;;
19887;SDS011;10106;51.332;12.336;2022-08-14T09:24:08;6.47;;;5.77;;
19887;SDS011;10106;51.332;12.336;2022-08-14T09:26:34;6.72;;;5.85;;
19887;SDS011;10106;51.332;12.336;2022-08-14T09:29:01;7.60;;;6.70;;
19887;SDS011;10106;51.332;12.336;2022-08-14T09:31:27;7.10;;;6.40;;
19887;SDS011;10106;51.332;12.336;2022-08-14T09:39:32;8.50;;;6.35;;
19887;SDS011;10106;51.332;12.336;2022-08-14T09:42:10;8.23;;;6.60;;
19887;SDS011;10106;51.332;12.336;2022-08-14T09:44:56;6.90;;;6.20;;
19887;SDS011;10106;51.332;12.336;2022-08-14T09:50:22;6.93;;;6.22;;
19887;SDS011;10106;51.332;12.336;2022-08-14T09:53:05;6.90;;;6.20;;
19887;SDS011;10106;51.332;12.336;2022-08-14T09:55:33;6.30;;;5.70;;
19887;SDS011;10106;51.332;12.336;2022-08-14T10:03:32;7.00;;;6.30;;
19887;SDS011;10106;51.332;12.336;2022-08-14T10:06:18;7.60;;;5.80;;
19887;SDS011;10106;51.332;12.336;2022-08-14T10:09:02;6.10;;;5.50;;
19887;SDS011;10106;51.332;12.336;2022-08-14T10:11:34;6.63;;;5.93;;
19887;SDS011;10106;51.332;12.336;2022-08-14T10:14:18;7.18;;;5.95;;
19887;SDS011;10106;51.332;12.336;2022-08-14T10:16:49;7.25;;;6.55;;
19887;SDS011;10106;51.332;12.336;2022-08-14T10:19:18;7.57;;;6.43;;
19887;SDS011;10106;51.332;12.336;2022-08-14T10:24:54;6.70;;;6.00;;
19887;SDS011;10106;51.332;12.336;2022-08-14T10:27:21;7.85;;;6.00;;
19887;SDS011;10106;51.332;12.336;2022-08-14T10:29:49;8.70;;;6.73;;
19887;SDS011;10106;51.332;12.336;2022-08-14T10:32:25;8.82;;;6.20;;
19887;SDS011;10106;51.332;12.336;2022-08-14T10:35:01;8.10;;;6.38;;
19887;SDS011;10106;51.332;12.336;2022-08-14T10:37:36;8.20;;;6.43;;
19887;SDS011;10106;51.332;12.336;2022-08-14T10:40:04;10.02;;;6.57;;
19887;SDS011;10106;51.332;12.336;2022-08-14T10:42:34;6.32;;;5.72;;
19887;SDS011;10106;51.332;12.336;2022-08-14T10:45:20;8.35;;;6.80;;
19887;SDS011;10106;51.332;12.336;2022-08-14T10:47:53;7.35;;;6.47;;
19887;SDS011;10106;51.332;12.336;2022-08-14T10:50:32;6.72;;;5.78;;
19887;SDS011;10106;51.332;12.336;2022-08-14T10:52:59;9.48;;;6.05;;
19887;SDS011;10106;51.332;12.336;2022-08-14T10:55:32;7.55;;;6.82;;
19887;SDS011;10106;51.332;12.336;2022-08-14T10:58:04;9.18;;;6.65;;
19887;SDS011;10106;51.332;12.336;2022-08-14T11:00:35;6.95;;;6.25;;
19887;SDS011;10106;51.332;12.336;2022-08-14T11:03:10;7.82;;;6.60;;
19887;SDS011;10106;51.332;12.336;2022-08-14T11:05:48;9.18;;;6.75;;
19887;SDS011;10106;51.332;12.336;2022-08-14T11:08:15;6.97;;;6.28;;
19887;SDS011;10106;51.332;12.336;2022-08-14T11:10:56;6.95;;;6.00;;
19887;SDS011;10106;51.332;12.336;2022-08-14T11:13:26;8.25;;;6.40;;
19887;SDS011;10106;51.332;12.336;2022-08-14T11:15:54;8.30;;;6.95;;
19887;SDS011;10106;51.332;12.336;2022-08-14T11:18:24;7.57;;;5.72;;
19887;SDS011;10106;51.332;12.336;2022-08-14T11:20:52;7.18;;;5.90;;
19887;SDS011;10106;51.332;12.336;2022-08-14T11:23:20;7.07;;;6.38;;
19887;SDS011;10106;51.332;12.336;2022-08-14T11:25:50;8.25;;;6.63;;
19887;SDS011;10106;51.332;12.336;2022-08-14T11:28:18;6.60;;;5.80;;
19887;SDS011;10106;51.332;12.336;2022-08-14T11:30:49;7.05;;;6.35;;
19887;SDS011;10106;51.332;12.336;2022-08-14T11:33:15;8.77;;;6.10;;
19887;SDS011;10106;51.332;12.336;2022-08-14T11:35:47;7.43;;;6.57;;
19887;SDS011;10106;51.332;12.336;2022-08-14T11:38:13;6.78;;;6.03;;
19887;SDS011;10106;51.332;12.336;2022-08-14T11:40:41;7.88;;;6.10;;
19887;SDS011;10106;51.332;12.336;2022-08-14T11:43:07;7.88;;;6.32;;
19887;SDS011;10106;51.332;12.336;2022-08-14T11:45:37;6.55;;;5.95;;
19887;SDS011;10106;51.332;12.336;2022-08-14T11:48:17;7.03;;;5.93;;
19887;SDS011;10106;51.332;12.336;2022-08-14T11:50:44;7.03;;;6.32;;
19887;SDS011;10106;51.332;12.336;2022-08-14T11:53:23;6.90;;;6.20;;
19887;SDS011;10106;51.332;12.336;2022-08-14T11:56:03;6.20;;;5.25;;
19887;SDS011;10106;51.332;12.336;2022-08-14T11:58:31;7.03;;;6.32;;
19887;SDS011;10106;51.332;12.336;2022-08-14T12:01:00;8.30;;;6.80;;
19887;SDS011;10106;51.332;12.336;2022-08-14T12:03:46;6.45;;;5.85;;
19887;SDS011;10106;51.332;12.336;2022-08-14T12:06:13;6.30;;;5.28;;
19887;SDS011;10106;51.332;12.336;2022-08-14T12:08:40;6.88;;;6.15;;
19887;SDS011;10106;51.332;12.336;2022-08-14T12:11:07;8.65;;;6.03;;
19887;SDS011;10106;51.332;12.336;2022-08-14T12:13:34;6.60;;;5.90;;
19887;SDS011;10106;51.332;12.336;2022-08-14T12:16:04;8.95;;;7.25;;
19887;SDS011;10106;51.332;12.336;2022-08-14T12:18:39;7.30;;;6.60;;
19887;SDS011;10106;51.332;12.336;2022-08-14T12:21:22;8.82;;;6.55;;
19887;SDS011;10106;51.332;12.336;2022-08-14T12:24:08;7.70;;;6.25;;
19887;SDS011;10106;51.332;12.336;2022-08-14T12:26:34;9.70;;;6.35;;
19887;SDS011;10106;51.332;12.336;2022-08-14T12:29:13;8.45;;;6.47;;
19887;SDS011;10106;51.332;12.336;2022-08-14T12:31:41;7.03;;;6.32;;
19887;SDS011;10106;51.332;12.336;2022-08-14T12:34:11;6.20;;;5.60;;
19887;SDS011;10106;51.332;12.336;2022-08-14T12:36:39;6.28;;;5.68;;
19887;SDS011;10106;51.332;12.336;2022-08-14T12:39:19;6.78;;;6.05;;
19887;SDS011;10106;51.332;12.336;2022-08-14T12:41:52;7.22;;;6.47;;
19887;SDS011;10106;51.332;12.336;2022-08-14T12:44:29;6.65;;;5.95;;
19887;SDS011;10106;51.332;12.336;2022-08-14T12:49:46;8.82;;;6.20;;
19887;SDS011;10106;51.332;12.336;2022-08-14T12:52:25;7.43;;;6.57;;
19887;SDS011;10106;51.332;12.336;2022-08-14T12:55:03;8.57;;;6.15;;
19887;SDS011;10106;51.332;12.336;2022-08-14T12:57:38;13.43;;;5.95;;
19887;SDS011;10106;51.332;12.336;2022-08-14T13:00:22;8.13;;;6.03;;
19887;SDS011;10106;51.332;12.336;2022-08-14T13:02:50;7.05;;;6.03;;
19887;SDS011;10106;51.332;12.336;2022-08-14T13:05:24;6.40;;;5.55;;
19887;SDS011;10106;51.332;12.336;2022-08-14T13:07:54;5.85;;;5.30;;
19887;SDS011;10106;51.332;12.336;2022-08-14T13:10:21;7.15;;;6.35;;
19887;SDS011;10106;51.332;12.336;2022-08-14T13:12:48;6.18;;;5.57;;
19887;SDS011;10106;51.332;12.336;2022-08-14T13:15:15;6.18;;;5.57;;
19887;SDS011;10106;51.332;12.336;2022-08-14T13:17:47;10.20;;;6.32;;
19887;SDS011;10106;51.332;12.336;2022-08-14T13:20:23;6.60;;;5.93;;
19887;SDS011;10106;51.332;12.336;2022-08-14T13:22:55;7.13;;;5.75;;
19887;SDS011;10106;51.332;12.336;2022-08-14T13:25:22;6.53;;;5.82;;
19887;SDS011;10106;51.332;12.336;2022-08-14T13:27:50;7.00;;;6.30;;
19887;SDS011;10106;51.332;12.336;2022-08-14T13:30:25;7.60;;;6.30;;
19887;SDS011;10106;51.332;12.336;2022-08-14T13:32:54;10.13;;;7.20;;
19887;SDS011;10106;51.332;12.336;2022-08-14T13:35:22;6.75;;;6.05;;
19887;SDS011;10106;51.332;12.336;2022-08-14T13:37:48;6.70;;;5.57;;
19887;SDS011;10106;51.332;12.336;2022-08-14T13:40:17;6.47;;;5.82;;
19887;SDS011;10106;51.332;12.336;2022-08-14T13:42:45;9.88;;;5.78;;
19887;SDS011;10106;51.332;12.336;2022-08-14T13:45:12;7.43;;;6.50;;
19887;SDS011;10106;51.332;12.336;2022-08-14T13:47:41;6.85;;;5.32;;
19887;SDS011;10106;51.332;12.336;2022-08-14T13:50:10;7.93;;;6.18;;
19887;SDS011;10106;51.332;12.336;2022-08-14T13:52:49;6.93;;;6.22;;
19887;SDS011;10106;51.332;12.336;2022-08-14T13:55:20;8.13;;;6.07;;
19887;SDS011;10106;51.332;12.336;2022-08-14T13:57:47;6.57;;;5.97;;
19887;SDS011;10106;51.332;12.336;2022-08-14T14:00:13;6.40;;;5.80;;
19887;SDS011;10106;51.332;12.336;2022-08-14T14:02:43;9.60;;;6.75;;
19887;SDS011;10106;51.332;12.336;2022-08-14T14:05:14;6.53;;;5.93;;
19887;SDS011;10106;51.332;12.336;2022-08-14T14:07:45;7.07;;;6.20;;
19887;SDS011;10106;51.332;12.336;2022-08-14T14:10:14;6.82;;;5.72;;
19887;SDS011;10106;51.332;12.336;2022-08-14T14:12:41;7.85;;;6.47;;
19887;SDS011;10106;51.332;12.336;2022-08-14T14:15:12;6.60;;;5.90;;
19887;SDS011;10106;51.332;12.336;2022-08-14T14:17:40;8.50;;;6.80;;
19887;SDS011;10106;51.332;12.336;2022-08-14T14:20:07;7.07;;;6.38;;
19887;SDS011;10106;51.332;12.336;2022-08-14T14:22:39;7.53;;;6.40;;
19887;SDS011;10106;51.332;12.336;2022-08-14T14:25:06;7.05;;;6.35;;
19887;SDS011;10106;51.332;12.336;2022-08-14T14:27:33;6.65;;;5.68;;
19887;SDS011;10106;51.332;12.336;2022-08-14T14:30:01;7.97;;;6.32;;
19887;SDS011;10106;51.332;12.336;2022-08-14T14:32:30;8.15;;;6.63;;
19887;SDS011;10106;51.332;12.336;2022-08-14T14:34:59;6.50;;;5.90;;
19887;SDS011;10106;51.332;12.336;2022-08-14T14:37:26;7.35;;;5.65;;
19887;SDS011;10106;51.332;12.336;2022-08-14T14:39:52;8.25;;;7.18;;
19887;SDS011;10106;51.332;12.336;2022-08-14T14:42:20;6.82;;;6.18;;
19887;SDS011;10106;51.332;12.336;2022-08-14T14:44:50;6.85;;;6.25;;
19887;SDS011;10106;51.332;12.336;2022-08-14T14:47:23;7.82;;;6.93;;
19887;SDS011;10106;51.332;12.336;2022-08-14T14:49:50;7.03;;;6.13;;
19887;SDS011;10106;51.332;12.336;2022-08-14T14:52:17;7.97;;;6.22;;
19887;SDS011;10106;51.332;12.336;2022-08-14T14:54:47;6.75;;;5.85;;
19887;SDS011;10106;51.332;12.336;2022-08-14T14:57:14;7.00;;;6.35;;
19887;SDS011;10106;51.332;12.336;2022-08-14T14:59:41;6.57;;;5.97;;
19887;SDS011;10106;51.332;12.336;2022-08-14T15:02:08;6.70;;;5.55;;
19887;SDS011;10106;51.332;12.336;2022-08-14T15:04:39;6.55;;;5.85;;